Time;durP1;ratioP1;P1;durP2;ratioP2;P2;SDS_P1;SDS_P2;PMS_P1;PMS_P2;Temp;Humidity;BMP_temperature;BMP_pressure;BME280_temperature;BME280_humidity;BME280_pressure;Samples;Min_cycle;Max_cycle;Signal;HPM_P1;HPM_P2
2023/05/17 00:00:50;;;;;;;8.60;6.50;;;18.00;1.00;;;;;;5041646;28;20552;-61
2023/05/17 00:03:15;;;;;;;8.77;5.65;;;18.10;1.00;;;;;;5033369;28;20049;-60
2023/05/17 00:05:41;;;;;;;5.65;4.50;;;18.10;1.00;;;;;;5033840;28;20068;-60
2023/05/17 00:08:06;;;;;;;5.97;4.97;;;18.00;1.00;;;;;;5033879;28;20121;-61
2023/05/17 00:10:32;;;;;;;6.35;5.55;;;18.00;1.00;;;;;;5032478;28;20140;-61
2023/05/17 00:12:58;;;;;;;8.10;5.30;;;18.00;1.00;;;;;;5035469;28;20033;-61
2023/05/17 00:15:23;;;;;;;6.18;4.93;;;18.00;1.00;;;;;;5034838;28;20026;-61
2023/05/17 00:17:49;;;;;;;5.15;4.55;;;18.00;1.00;;;;;;5037494;28;20025;-61
2023/05/17 00:20:15;;;;;;;9.52;7.72;;;18.00;1.00;;;;;;5040022;28;20057;-61
2023/05/17 00:22:42;;;;;;;7.28;4.65;;;18.00;1.00;;;;;;5042447;28;20033;-61
2023/05/17 00:25:08;;;;;;;5.05;4.30;;;18.00;1.00;;;;;;5032540;28;20391;-61
2023/05/17 00:27:33;;;;;;;10.90;7.22;;;18.00;1.00;;;;;;5034583;28;21471;-61
2023/05/17 00:29:59;;;;;;;6.70;5.18;;;18.00;1.00;;;;;;5035992;28;20029;-61
2023/05/17 00:32:25;;;;;;;7.32;5.25;;;17.90;1.00;;;;;;5037305;28;20037;-61
2023/05/17 00:34:50;;;;;;;15.50;11.48;;;17.90;1.00;;;;;;5034190;28;20032;-61
2023/05/17 00:37:16;;;;;;;13.05;9.48;;;17.90;1.00;;;;;;5037600;28;20498;-60
2023/05/17 00:39:41;;;;;;;8.10;5.75;;;17.90;1.00;;;;;;5038586;28;20030;-61
2023/05/17 00:42:08;;;;;;;7.43;4.70;;;18.00;1.00;;;;;;5036653;28;20107;-61
2023/05/17 00:44:33;;;;;;;7.40;4.60;;;17.90;1.00;;;;;;5040262;28;20052;-61
2023/05/17 00:46:59;;;;;;;6.88;5.50;;;17.90;1.00;;;;;;5045203;28;20033;-61
2023/05/17 00:49:28;;;;;;;5.95;5.03;;;17.90;1.00;;;;;;5036726;28;20033;-60
2023/05/17 00:51:54;;;;;;;5.85;5.25;;;17.90;1.00;;;;;;5035363;28;20042;-61
2023/05/17 00:54:20;;;;;;;9.45;5.78;;;17.90;1.00;;;;;;5045850;28;20060;-61
2023/05/17 00:56:47;;;;;;;5.20;4.70;;;17.90;1.00;;;;;;5038641;28;20048;-61
2023/05/17 00:59:13;;;;;;;6.72;5.50;;;17.90;1.00;;;;;;5034744;28;20026;-61
2023/05/17 01:01:43;;;;;;;8.13;5.53;;;17.90;1.00;;;;;;5034801;28;20047;-61
2023/05/17 01:04:09;;;;;;;18.63;10.40;;;17.90;1.00;;;;;;5032225;28;20032;-61
2023/05/17 01:06:36;;;;;;;10.73;7.35;;;17.90;1.00;;;;;;5038406;28;20517;-61
2023/05/17 01:09:03;;;;;;;13.73;9.15;;;17.90;1.00;;;;;;5032136;28;20080;-61
2023/05/17 01:11:52;;;;;;;26.55;14.38;;;17.90;1.00;;;;;;5031278;28;20493;-61
2023/05/17 01:15:05;;;;;;;7.80;5.63;;;17.90;1.00;;;;;;5025662;28;20034;-61
2023/05/17 01:17:39;;;;;;;8.48;6.50;;;17.80;1.00;;;;;;5025618;28;20037;-61
2023/05/17 01:20:28;;;;;;;18.52;9.65;;;17.80;1.00;;;;;;5035041;28;20100;-61
2023/05/17 01:23:10;;;;;;;16.30;9.07;;;17.80;1.00;;;;;;5033543;28;20087;-61
2023/05/17 01:26:07;;;;;;;8.70;6.35;;;17.80;1.00;;;;;;5033678;28;20033;-60
2023/05/17 01:28:39;;;;;;;5.70;4.80;;;17.90;1.00;;;;;;5029863;28;20112;-61
2023/05/17 01:31:07;;;;;;;5.60;5.00;;;17.80;1.00;;;;;;5030688;28;20028;-61
2023/05/17 01:33:33;;;;;;;5.63;5.07;;;17.80;1.00;;;;;;5033629;28;20025;-61
2023/05/17 01:35:59;;;;;;;6.40;5.30;;;17.80;1.00;;;;;;5036259;28;20584;-61
2023/05/17 01:38:24;;;;;;;6.68;5.82;;;17.80;1.00;;;;;;5035701;28;20403;-60
2023/05/17 01:41:24;;;;;;;6.82;4.85;;;17.80;1.00;;;;;;5042155;28;20060;-61
2023/05/17 01:43:54;;;;;;;7.70;5.03;;;17.70;1.00;;;;;;5033001;28;20064;-61
2023/05/17 01:46:37;;;;;;;6.68;5.22;;;17.80;1.00;;;;;;5035446;28;20110;-60
2023/05/17 01:49:19;;;;;;;9.77;6.00;;;17.80;1.00;;;;;;5032782;28;20033;-61
2023/05/17 01:51:53;;;;;;;4.97;4.47;;;17.80;1.00;;;;;;5036860;28;20041;-61
2023/05/17 01:54:22;;;;;;;5.15;4.45;;;17.80;1.00;;;;;;5030734;28;20032;-61
2023/05/17 01:57:08;;;;;;;5.00;4.50;;;17.80;1.00;;;;;;5038997;28;20037;-61
2023/05/17 01:59:36;;;;;;;7.15;5.05;;;17.80;1.00;;;;;;5027912;28;20108;-61
2023/05/17 02:02:07;;;;;;;5.68;4.53;;;17.80;1.00;;;;;;5033724;28;20538;-61
2023/05/17 02:04:33;;;;;;;12.32;7.30;;;17.70;1.00;;;;;;5031827;28;20034;-61
2023/05/17 02:06:59;;;;;;;9.27;5.93;;;17.80;1.00;;;;;;5029520;28;20059;-61
2023/05/17 02:09:25;;;;;;;6.65;4.88;;;17.80;1.00;;;;;;5033969;28;20463;-61
2023/05/17 02:11:50;;;;;;;5.95;4.78;;;17.80;1.00;;;;;;5018225;28;20045;-61
2023/05/17 02:14:16;;;;;;;7.20;4.93;;;17.80;1.00;;;;;;5030664;28;20029;-61
2023/05/17 02:16:42;;;;;;;5.78;4.85;;;17.70;1.00;;;;;;5030603;28;20037;-61
2023/05/17 02:19:08;;;;;;;7.25;5.00;;;17.80;1.00;;;;;;5028793;28;20057;-61
2023/05/17 02:21:34;;;;;;;6.05;4.47;;;17.80;1.00;;;;;;5039501;28;20083;-61
2023/05/17 02:24:00;;;;;;;6.50;4.85;;;17.80;1.00;;;;;;5041572;28;20411;-60
2023/05/17 02:26:26;;;;;;;6.13;4.45;;;17.80;1.00;;;;;;5033966;28;20022;-60
2023/05/17 02:28:52;;;;;;;7.85;4.57;;;17.80;1.00;;;;;;5031885;28;20398;-60
2023/05/17 02:31:18;;;;;;;7.85;4.85;;;17.80;1.00;;;;;;5030987;28;20037;-60
2023/05/17 02:33:44;;;;;;;6.07;4.63;;;17.80;1.00;;;;;;5031736;28;20056;-61
2023/05/17 02:36:10;;;;;;;5.70;4.97;;;17.80;1.00;;;;;;5032141;28;20064;-61
2023/05/17 02:38:35;;;;;;;5.82;4.97;;;17.80;1.00;;;;;;5034569;28;20029;-60
2023/05/17 02:41:02;;;;;;;4.68;4.22;;;17.80;1.00;;;;;;5030644;28;20021;-61
2023/05/17 02:43:28;;;;;;;6.05;4.22;;;17.70;1.00;;;;;;5035426;28;20129;-60
2023/05/17 02:45:53;;;;;;;4.57;4.18;;;17.80;1.00;;;;;;5032148;28;20065;-61
2023/05/17 02:48:19;;;;;;;6.15;4.53;;;17.80;1.00;;;;;;5031294;28;20108;-61
2023/05/17 02:50:44;;;;;;;6.32;4.53;;;17.70;1.00;;;;;;5031892;28;20413;-61
2023/05/17 02:53:10;;;;;;;5.35;4.40;;;17.80;1.00;;;;;;5034423;28;20029;-61
2023/05/17 02:55:36;;;;;;;6.93;4.68;;;17.70;1.00;;;;;;5040057;28;20025;-61
2023/05/17 02:58:02;;;;;;;4.80;4.32;;;17.70;1.00;;;;;;5035322;28;20037;-61
2023/05/17 03:00:28;;;;;;;5.00;4.50;;;17.70;1.00;;;;;;5022455;28;20021;-61
2023/05/17 03:02:54;;;;;;;7.85;4.82;;;17.70;1.00;;;;;;5032841;28;20029;-61
2023/05/17 03:05:20;;;;;;;6.18;5.32;;;17.70;1.00;;;;;;5040600;28;20441;-61
2023/05/17 03:07:45;;;;;;;6.13;5.18;;;17.70;1.00;;;;;;5032354;28;20509;-61
2023/05/17 03:10:11;;;;;;;5.95;4.70;;;17.70;1.00;;;;;;5032685;28;20038;-61
2023/05/17 03:12:37;;;;;;;5.78;4.82;;;17.70;1.00;;;;;;5032789;28;20502;-61
2023/05/17 03:15:03;;;;;;;5.97;4.22;;;17.70;1.00;;;;;;5035666;28;20026;-61
2023/05/17 03:17:28;;;;;;;5.47;4.90;;;17.70;1.00;;;;;;5041931;28;20017;-61
2023/05/17 03:19:54;;;;;;;5.57;4.15;;;17.60;1.00;;;;;;5038166;28;20564;-61
2023/05/17 03:22:20;;;;;;;6.60;4.60;;;17.60;1.00;;;;;;5034901;28;20029;-61
2023/05/17 03:24:46;;;;;;;5.57;4.85;;;17.60;1.00;;;;;;5035190;28;20064;-61
2023/05/17 03:27:11;;;;;;;6.00;4.75;;;17.60;1.00;;;;;;5037335;28;20030;-61
2023/05/17 03:29:37;;;;;;;6.18;5.40;;;17.60;1.00;;;;;;5033759;28;20380;-61
2023/05/17 03:32:03;;;;;;;5.88;4.90;;;17.60;1.00;;;;;;5037804;28;20475;-61
2023/05/17 03:34:29;;;;;;;6.50;4.88;;;17.60;1.00;;;;;;5037956;28;20038;-61
2023/05/17 03:36:54;;;;;;;6.97;5.25;;;17.60;1.00;;;;;;5033309;28;20503;-61
2023/05/17 03:39:20;;;;;;;7.50;5.70;;;17.60;1.00;;;;;;5036314;28;20025;-61
2023/05/17 03:41:46;;;;;;;5.72;4.82;;;17.60;1.00;;;;;;5035236;28;20068;-61
2023/05/17 03:44:11;;;;;;;8.05;5.38;;;17.60;1.00;;;;;;5041361;28;20069;-61
2023/05/17 03:46:37;;;;;;;6.80;5.80;;;17.60;1.00;;;;;;5039706;28;20475;-61
2023/05/17 03:49:03;;;;;;;7.38;5.28;;;17.60;1.00;;;;;;5035958;28;20461;-61
2023/05/17 03:51:28;;;;;;;6.05;5.40;;;17.60;1.00;;;;;;5035018;28;20041;-61
2023/05/17 03:53:58;;;;;;;7.03;5.47;;;17.50;1.00;;;;;;5044650;28;20116;-61
2023/05/17 03:56:24;;;;;;;5.78;5.28;;;17.50;1.00;;;;;;5036722;28;20029;-61
2023/05/17 03:58:50;;;;;;;7.07;5.78;;;17.60;1.00;;;;;;5040804;28;20515;-61
2023/05/17 04:01:16;;;;;;;6.25;5.35;;;17.50;1.00;;;;;;5039471;28;20476;-61
2023/05/17 04:03:42;;;;;;;8.43;6.00;;;17.50;1.00;;;;;;5039981;28;20033;-61
2023/05/17 04:06:08;;;;;;;6.90;5.40;;;17.50;1.00;;;;;;5038165;28;20029;-61
2023/05/17 04:08:34;;;;;;;8.13;5.35;;;17.50;1.00;;;;;;5037405;28;20104;-61
2023/05/17 04:11:08;;;;;;;6.90;5.85;;;17.50;1.00;;;;;;5034712;28;20044;-61
2023/05/17 04:13:36;;;;;;;6.63;5.78;;;17.50;1.00;;;;;;5037109;28;20021;-61
2023/05/17 04:16:02;;;;;;;8.15;5.97;;;17.60;1.00;;;;;;5037628;28;20108;-61
2023/05/17 04:18:28;;;;;;;6.65;5.35;;;17.60;1.00;;;;;;5037177;28;20036;-61
2023/05/17 04:20:54;;;;;;;8.18;5.95;;;17.60;1.00;;;;;;5038254;28;20113;-61
2023/05/17 04:23:20;;;;;;;6.10;4.57;;;17.60;1.00;;;;;;5034639;28;20117;-61
2023/05/17 04:25:46;;;;;;;7.50;5.15;;;17.60;1.00;;;;;;5042659;28;20188;-61
2023/05/17 04:28:11;;;;;;;7.50;5.60;;;17.60;1.00;;;;;;5042793;28;20029;-61
2023/05/17 04:30:42;;;;;;;5.70;5.20;;;17.60;1.00;;;;;;5043871;28;20040;-60
2023/05/17 04:33:07;;;;;;;5.47;4.90;;;17.50;1.00;;;;;;5034268;28;20065;-61
2023/05/17 04:35:33;;;;;;;7.13;5.28;;;17.60;1.00;;;;;;5032807;28;20060;-60
2023/05/17 04:37:58;;;;;;;9.55;5.95;;;17.60;1.00;;;;;;5035544;28;20478;-60
2023/05/17 04:40:24;;;;;;;6.53;5.82;;;17.60;1.00;;;;;;5033403;28;20024;-60
2023/05/17 04:42:51;;;;;;;6.72;6.10;;;17.60;1.00;;;;;;5035847;28;20045;-60
2023/05/17 04:45:16;;;;;;;6.72;5.72;;;17.60;1.00;;;;;;5048502;28;20021;-61
2023/05/17 04:47:42;;;;;;;7.40;6.03;;;17.60;1.00;;;;;;5048193;28;20102;-61
2023/05/17 04:50:08;;;;;;;7.90;6.32;;;17.60;1.00;;;;;;5047707;28;20037;-60
2023/05/17 04:52:34;;;;;;;9.07;6.65;;;17.60;1.00;;;;;;5033573;28;20041;-60
2023/05/17 04:54:59;;;;;;;7.05;6.28;;;17.60;1.00;;;;;;5035240;28;20025;-61
2023/05/17 04:57:25;;;;;;;9.52;7.32;;;17.60;1.00;;;;;;5037272;28;20158;-61
2023/05/17 04:59:51;;;;;;;9.57;6.60;;;17.60;1.00;;;;;;5036585;28;20437;-60
2023/05/17 05:02:16;;;;;;;8.73;7.00;;;17.60;1.00;;;;;;5032262;28;20037;-60
2023/05/17 05:04:42;;;;;;;9.27;8.25;;;17.60;1.00;;;;;;5033629;28;20033;-60
2023/05/17 05:07:07;;;;;;;8.95;7.07;;;17.60;1.00;;;;;;5036083;28;20029;-60
2023/05/17 05:09:33;;;;;;;9.70;7.93;;;17.60;1.00;;;;;;5031783;28;20034;-60
2023/05/17 05:11:59;;;;;;;9.73;8.00;;;17.60;1.00;;;;;;5033819;28;20128;-60
2023/05/17 05:14:24;;;;;;;9.23;8.07;;;17.60;1.00;;;;;;5037133;28;20029;-60
2023/05/17 05:16:50;;;;;;;10.13;7.78;;;17.60;1.00;;;;;;5032873;28;20041;-61
2023/05/17 05:19:16;;;;;;;10.68;7.75;;;17.60;1.00;;;;;;5032367;28;20029;-61
2023/05/17 05:21:44;;;;;;;9.57;7.43;;;17.60;1.00;;;;;;5033841;28;20034;-60
2023/05/17 05:24:10;;;;;;;8.85;7.22;;;17.60;1.00;;;;;;5032913;28;20477;-60
2023/05/17 05:26:36;;;;;;;12.02;8.43;;;17.60;1.00;;;;;;5034526;28;20033;-61
2023/05/17 05:29:02;;;;;;;10.35;7.95;;;17.60;1.00;;;;;;5035835;28;20044;-60
2023/05/17 05:31:27;;;;;;;9.00;7.53;;;17.70;1.00;;;;;;5034751;28;20030;-60
2023/05/17 05:33:53;;;;;;;8.85;7.95;;;17.70;1.00;;;;;;5042211;28;20081;-60
2023/05/17 05:36:19;;;;;;;9.70;8.70;;;17.70;1.00;;;;;;5032993;28;20021;-60
2023/05/17 05:38:44;;;;;;;13.60;8.30;;;17.70;1.00;;;;;;5033203;28;20620;-60
2023/05/17 05:41:10;;;;;;;11.90;7.82;;;17.70;1.00;;;;;;5033937;28;20026;-61
2023/05/17 05:43:36;;;;;;;11.13;8.60;;;17.70;1.00;;;;;;5038242;28;20050;-61
2023/05/17 05:46:02;;;;;;;10.25;8.00;;;17.70;1.00;;;;;;5038776;28;20021;-61
2023/05/17 05:48:28;;;;;;;8.65;7.70;;;17.70;1.00;;;;;;5034370;28;20100;-61
2023/05/17 05:50:54;;;;;;;14.45;8.85;;;17.70;1.00;;;;;;5034789;28;20510;-61
2023/05/17 05:53:19;;;;;;;10.32;8.25;;;17.70;1.00;;;;;;5027979;28;20114;-61
2023/05/17 05:55:45;;;;;;;10.02;7.93;;;17.70;1.00;;;;;;5049124;28;20032;-61
2023/05/17 05:58:11;;;;;;;10.05;7.72;;;17.70;1.00;;;;;;5042859;28;20029;-61
2023/05/17 06:00:37;;;;;;;10.38;7.05;;;17.70;1.00;;;;;;5040375;28;20018;-61
2023/05/17 06:03:03;;;;;;;9.60;7.88;;;17.70;1.00;;;;;;5034095;28;20021;-60
2023/05/17 06:05:29;;;;;;;9.35;7.97;;;17.70;1.00;;;;;;5034401;28;20478;-61
2023/05/17 06:07:54;;;;;;;8.88;6.72;;;17.70;1.00;;;;;;5036638;28;20120;-61
2023/05/17 06:10:20;;;;;;;7.53;6.72;;;17.70;1.00;;;;;;5035297;28;20036;-61
2023/05/17 06:12:46;;;;;;;9.20;7.07;;;17.60;1.00;;;;;;5039924;28;20037;-61
2023/05/17 06:15:12;;;;;;;9.85;7.43;;;17.70;1.00;;;;;;5028490;28;20032;-61
2023/05/17 06:17:37;;;;;;;10.02;7.55;;;17.70;1.00;;;;;;5037539;28;20112;-61
2023/05/17 06:20:04;;;;;;;7.32;6.63;;;17.70;1.00;;;;;;5042706;28;20052;-61
2023/05/17 06:22:29;;;;;;;8.45;7.00;;;17.70;1.00;;;;;;5032741;28;20028;-61
2023/05/17 06:24:55;;;;;;;8.25;7.45;;;17.80;1.00;;;;;;5032194;28;20026;-61
2023/05/17 06:27:20;;;;;;;9.15;7.88;;;17.70;1.00;;;;;;5042534;28;20091;-61
2023/05/17 06:29:46;;;;;;;9.38;7.80;;;17.70;1.00;;;;;;5036268;28;20037;-60
2023/05/17 06:32:12;;;;;;;12.02;7.93;;;17.70;1.00;;;;;;5030178;28;20449;-61
2023/05/17 06:34:38;;;;;;;10.20;8.02;;;17.80;1.00;;;;;;5035676;28;20035;-61
2023/05/17 06:37:04;;;;;;;11.25;7.43;;;17.80;1.00;;;;;;5032183;28;20491;-61
2023/05/17 06:39:30;;;;;;;13.55;7.80;;;17.80;1.00;;;;;;5033168;28;20025;-60
2023/05/17 06:41:55;;;;;;;9.68;6.60;;;17.80;1.00;;;;;;5034319;28;20446;-61
2023/05/17 06:44:21;;;;;;;8.85;6.80;;;17.80;1.00;;;;;;5035496;28;20048;-61
2023/05/17 06:46:47;;;;;;;10.27;6.18;;;17.80;1.00;;;;;;5029776;28;20033;-60
2023/05/17 06:49:12;;;;;;;9.77;6.72;;;17.60;1.00;;;;;;5018939;28;20022;-60
2023/05/17 06:51:38;;;;;;;9.25;6.28;;;17.70;1.00;;;;;;5032457;28;20128;-60
2023/05/17 06:54:04;;;;;;;9.65;6.20;;;17.60;1.00;;;;;;5037871;28;20061;-60
2023/05/17 06:56:30;;;;;;;11.77;6.60;;;17.60;1.00;;;;;;5037806;28;20116;-61
2023/05/17 06:58:56;;;;;;;6.70;5.78;;;17.50;1.00;;;;;;5031696;28;20125;-60
2023/05/17 07:01:21;;;;;;;9.93;5.65;;;17.50;1.00;;;;;;5026381;28;20108;-57
2023/05/17 07:03:47;;;;;;;8.93;5.32;;;17.40;1.00;;;;;;5038405;28;20071;-64
2023/05/17 07:06:13;;;;;;;7.25;5.40;;;17.40;1.00;;;;;;5046554;28;20021;-64
2023/05/17 07:08:39;;;;;;;6.80;5.32;;;17.40;1.00;;;;;;5045257;28;20496;-62
2023/05/17 07:11:05;;;;;;;5.50;4.45;;;17.40;1.00;;;;;;5042673;28;20057;-66
2023/05/17 07:13:30;;;;;;;6.15;4.40;;;17.20;1.00;;;;;;5037320;28;20041;-55
2023/05/17 07:15:56;;;;;;;4.93;4.43;;;17.10;1.00;;;;;;5039092;28;20048;-62
2023/05/17 07:18:22;;;;;;;6.53;3.85;;;17.10;1.00;;;;;;5044773;28;20056;-64
2023/05/17 07:20:48;;;;;;;4.45;3.20;;;17.10;1.00;;;;;;5020510;28;20396;-62
2023/05/17 07:23:13;;;;;;;4.00;3.60;;;17.00;1.00;;;;;;5039942;28;20112;-63
2023/05/17 07:25:41;;;;;;;3.22;2.92;;;16.90;1.00;;;;;;5034167;28;20029;-63
2023/05/17 07:28:07;;;;;;;5.85;3.10;;;16.90;1.00;;;;;;5040648;28;20025;-62
2023/05/17 07:30:32;;;;;;;4.05;3.35;;;17.00;1.00;;;;;;5037993;28;20341;-59
2023/05/17 07:32:58;;;;;;;3.78;2.97;;;17.10;1.00;;;;;;5041363;28;20029;-61
2023/05/17 07:35:24;;;;;;;4.35;2.80;;;17.10;1.00;;;;;;5044043;28;20037;-66
2023/05/17 07:37:49;;;;;;;3.58;2.70;;;17.20;1.00;;;;;;5029840;28;20045;-58
2023/05/17 07:40:15;;;;;;;3.30;2.50;;;17.30;1.00;;;;;;5042321;28;20029;-64
2023/05/17 07:42:41;;;;;;;4.18;2.60;;;17.30;1.00;;;;;;5036746;28;20033;-64
2023/05/17 07:45:07;;;;;;;3.17;2.85;;;17.30;1.00;;;;;;5032443;28;20379;-65
2023/05/17 07:47:33;;;;;;;2.45;2.25;;;17.20;1.00;;;;;;5037269;28;20045;-63
2023/05/17 07:49:58;;;;;;;7.88;2.90;;;17.30;1.00;;;;;;5035761;28;20024;-60
2023/05/17 07:52:24;;;;;;;2.65;2.45;;;17.20;1.00;;;;;;5043675;28;20037;-60
2023/05/17 07:54:50;;;;;;;5.68;3.30;;;17.20;1.00;;;;;;5031550;28;20021;-60
2023/05/17 07:57:18;;;;;;;4.07;2.70;;;17.20;1.00;;;;;;5042715;28;20051;-55
2023/05/17 07:59:44;;;;;;;5.35;3.55;;;17.20;1.00;;;;;;5037910;28;20029;-57
2023/05/17 08:02:10;;;;;;;4.18;3.10;;;17.10;1.00;;;;;;5035161;28;20049;-58
2023/05/17 08:04:36;;;;;;;6.90;3.40;;;17.10;1.00;;;;;;5044008;28;20020;-58
2023/05/17 08:07:01;;;;;;;4.57;3.53;;;17.10;1.00;;;;;;5033288;28;20037;-59
2023/05/17 08:09:27;;;;;;;;;;;17.00;1.00;;;;;;5037167;28;20079;-64
2023/05/17 08:11:52;;;;;;;5.95;3.15;;;17.00;1.00;;;;;;5033819;28;19939;-64
2023/05/17 08:14:21;;;;;;;3.47;2.80;;;17.10;1.00;;;;;;5037999;28;20109;-66
2023/05/17 08:16:47;;;;;;;3.00;2.70;;;17.00;1.00;;;;;;5034327;28;20104;-66
2023/05/17 08:19:13;;;;;;;2.42;2.17;;;17.00;1.00;;;;;;5033022;28;20105;-63
2023/05/17 08:21:41;;;;;;;6.47;2.90;;;16.90;1.00;;;;;;5035957;28;20079;-56
2023/05/17 08:24:06;;;;;;;3.55;3.15;;;16.70;1.00;;;;;;5033447;28;20471;-62
2023/05/17 08:26:32;;;;;;;6.28;4.57;;;16.60;1.00;;;;;;5043562;28;20036;-53
2023/05/17 08:28:58;;;;;;;6.28;3.03;;;16.60;1.00;;;;;;5045778;28;20370;-69
2023/05/17 08:31:24;;;;;;;3.65;2.53;;;16.70;1.00;;;;;;5050625;28;21240;-54
2023/05/17 08:33:49;;;;;;;2.65;2.25;;;16.70;1.00;;;;;;5049776;28;20039;-65
2023/05/17 08:36:15;;;;;;;3.40;2.17;;;16.80;1.00;;;;;;5043141;28;20025;-58
2023/05/17 08:38:41;;;;;;;3.28;2.35;;;16.90;1.00;;;;;;5046842;28;20067;-59
2023/05/17 08:41:08;;;;;;;1.98;1.70;;;16.80;1.00;;;;;;5050418;28;20045;-60
2023/05/17 08:43:34;;;;;;;2.47;2.10;;;16.80;1.00;;;;;;5045871;28;20136;-58
2023/05/17 08:46:02;;;;;;;1.52;1.33;;;16.90;1.00;;;;;;5046797;28;20021;-59
2023/05/17 08:48:31;;;;;;;3.38;2.00;;;16.90;1.00;;;;;;5049881;28;20032;-55
2023/05/17 08:50:58;;;;;;;2.08;1.88;;;17.00;1.00;;;;;;5043289;28;20021;-65
2023/05/17 08:53:25;;;;;;;2.40;2.00;;;17.00;1.00;;;;;;5046596;28;20507;-53
2023/05/17 08:55:56;;;;;;;4.60;2.58;;;17.00;1.00;;;;;;5048712;28;20041;-63
2023/05/17 08:58:26;;;;;;;4.20;2.05;;;17.00;1.00;;;;;;5046702;28;20066;-60
2023/05/17 09:00:55;;;;;;;1.65;1.55;;;17.10;1.00;;;;;;5049876;28;20021;-62
2023/05/17 09:03:22;;;;;;;5.07;1.83;;;17.20;1.00;;;;;;5046336;28;20025;-63
2023/05/17 09:05:52;;;;;;;3.08;1.83;;;17.20;1.00;;;;;;5049130;28;20025;-55
2023/05/17 09:08:20;;;;;;;2.53;1.30;;;17.30;1.00;;;;;;5039285;28;20054;-55
2023/05/17 09:10:45;;;;;;;3.45;1.35;;;17.30;1.00;;;;;;5052776;28;20528;-62
2023/05/17 09:13:11;;;;;;;2.08;1.30;;;17.30;1.00;;;;;;5044810;28;20064;-55
2023/05/17 09:15:37;;;;;;;2.63;1.60;;;17.20;1.00;;;;;;5048451;28;20154;-51
2023/05/17 09:18:03;;;;;;;1.35;1.00;;;17.30;1.00;;;;;;5043369;28;20028;-62
2023/05/17 09:20:35;;;;;;;3.58;0.90;;;17.40;1.00;;;;;;5041641;28;20013;-58
2023/05/17 09:23:05;;;;;;;4.78;1.17;;;17.40;1.00;;;;;;5041328;28;20033;-53
2023/05/17 09:25:31;;;;;;;1.30;1.05;;;17.50;1.00;;;;;;5047115;28;20017;-58
2023/05/17 09:28:01;;;;;;;1.85;1.13;;;17.50;1.00;;;;;;5050781;28;20429;-57
2023/05/17 09:30:29;;;;;;;2.50;1.05;;;17.50;1.00;;;;;;5038001;28;20045;-60
2023/05/17 09:32:56;;;;;;;4.63;1.85;;;17.50;1.00;;;;;;5035454;28;20064;-51
2023/05/17 09:35:31;;;;;;;3.88;2.75;;;17.50;1.00;;;;;;5025511;28;20037;-55
2023/05/17 09:38:11;;;;;;;7.00;3.42;;;17.60;1.00;;;;;;5062276;28;20447;-58
2023/05/17 09:40:39;;;;;;;1.33;1.05;;;17.70;1.00;;;;;;5068127;28;20047;-49
2023/05/17 09:43:05;;;;;;;2.78;1.02;;;17.70;1.00;;;;;;5069029;28;20481;-64
2023/05/17 09:45:32;;;;;;;1.60;0.50;;;17.70;1.00;;;;;;5058583;28;20048;-47
2023/05/17 09:48:10;;;;;;;1.77;0.70;;;17.70;1.00;;;;;;5065743;28;20095;-54
2023/05/17 09:50:36;;;;;;;0.80;0.73;;;17.60;1.00;;;;;;5060838;28;20040;-53
2023/05/17 09:53:01;;;;;;;2.92;0.73;;;17.70;1.00;;;;;;5069215;28;20020;-50
2023/05/17 09:55:29;;;;;;;1.65;1.10;;;17.80;1.00;;;;;;5056596;28;20390;-59
2023/05/17 09:58:02;;;;;;;1.88;1.30;;;17.80;1.00;;;;;;5067281;28;20037;-51
2023/05/17 10:00:28;;;;;;;2.38;1.30;;;17.80;1.00;;;;;;5074622;28;20057;-51
2023/05/17 10:02:54;;;;;;;4.07;2.50;;;17.80;1.00;;;;;;5069117;28;20040;-57
2023/05/17 10:05:21;;;;;;;2.05;1.02;;;17.80;1.00;;;;;;5069068;28;20045;-62
2023/05/17 10:07:49;;;;;;;1.73;1.00;;;17.80;1.00;;;;;;5065662;28;20027;-62
2023/05/17 10:10:16;;;;;;;3.63;1.60;;;17.90;1.00;;;;;;5069037;28;20035;-62
2023/05/17 10:12:43;;;;;;;1.65;1.15;;;17.90;1.00;;;;;;5072133;28;20099;-62
2023/05/17 10:15:11;;;;;;;2.67;1.17;;;17.90;1.00;;;;;;5067715;28;20024;-62
2023/05/17 10:17:40;;;;;;;2.40;1.40;;;18.00;1.00;;;;;;5064086;28;20479;-62
2023/05/17 10:20:07;;;;;;;2.35;1.30;;;18.00;1.00;;;;;;5068604;28;20032;-62
2023/05/17 10:22:35;;;;;;;2.55;1.10;;;18.10;1.00;;;;;;5055657;28;20032;-62
2023/05/17 10:25:00;;;;;;;1.98;1.23;;;18.20;1.00;;;;;;5066588;28;20025;-47
2023/05/17 10:27:27;;;;;;;2.83;1.15;;;18.20;1.00;;;;;;5071081;28;20033;-59
2023/05/17 10:29:54;;;;;;;3.97;0.90;;;18.10;1.00;;;;;;5060705;28;20032;-50
2023/05/17 10:32:21;;;;;;;2.97;1.60;;;18.10;1.00;;;;;;5066576;28;20025;-50
2023/05/17 10:34:49;;;;;;;5.78;1.15;;;18.20;1.00;;;;;;5068551;28;20047;-53
2023/05/17 10:37:18;;;;;;;0.82;0.57;;;18.30;1.00;;;;;;5064575;28;20061;-60
2023/05/17 10:39:45;;;;;;;2.60;1.00;;;18.30;1.00;;;;;;5067751;28;20023;-61
2023/05/17 10:42:14;;;;;;;3.67;2.50;;;18.30;1.00;;;;;;5055188;28;20025;-61
2023/05/17 10:44:40;;;;;;;1.25;1.15;;;18.40;1.00;;;;;;5055366;28;20368;-61
2023/05/17 10:47:07;;;;;;;1.48;1.20;;;18.50;1.00;;;;;;5066640;28;20473;-61
2023/05/17 10:49:36;;;;;;;1.67;1.58;;;18.50;1.00;;;;;;5048996;28;20025;-61
2023/05/17 10:52:16;;;;;;;2.17;0.95;;;18.50;1.00;;;;;;5050566;28;20060;-61
2023/05/17 10:54:43;;;;;;;4.85;1.27;;;18.50;1.00;;;;;;5048790;28;20031;-60
2023/05/17 10:57:20;;;;;;;1.05;0.93;;;18.60;1.00;;;;;;5053053;28;20503;-61
2023/05/17 10:59:57;;;;;;;1.85;0.88;;;18.60;1.00;;;;;;5053417;28;20021;-51
2023/05/17 11:02:24;;;;;;;1.40;0.73;;;18.60;1.00;;;;;;5054223;28;20032;-63
2023/05/17 11:04:54;;;;;;;2.22;0.90;;;18.60;1.00;;;;;;5053171;28;20028;-63
2023/05/17 11:07:26;;;;;;;1.52;0.82;;;18.60;1.00;;;;;;5054126;28;20482;-63
2023/05/17 11:09:54;;;;;;;1.95;1.48;;;18.60;1.00;;;;;;5053944;28;20495;-63
2023/05/17 11:12:37;;;;;;;2.53;1.20;;;18.60;1.00;;;;;;5052139;28;20040;-63
2023/05/17 11:15:10;;;;;;;4.85;1.65;;;18.60;1.00;;;;;;5045772;28;20079;-62
2023/05/17 11:17:41;;;;;;;1.73;0.77;;;18.60;1.00;;;;;;5056434;28;20029;-62
2023/05/17 11:20:27;;;;;;;2.05;1.00;;;18.50;1.00;;;;;;5053358;28;20021;-63
2023/05/17 11:22:57;;;;;;;1.48;0.82;;;18.60;1.00;;;;;;5053233;28;20020;-63
2023/05/17 11:25:26;;;;;;;1.20;1.10;;;18.70;1.00;;;;;;5053047;28;20025;-63
2023/05/17 11:27:52;;;;;;;0.90;0.90;;;18.60;1.00;;;;;;5057185;28;20051;-63
2023/05/17 11:30:23;;;;;;;1.83;0.90;;;18.50;1.00;;;;;;5056342;28;20036;-62
2023/05/17 11:32:53;;;;;;;2.13;1.90;;;18.40;1.00;;;;;;5053484;28;20078;-63
2023/05/17 11:35:23;;;;;;;3.15;1.02;;;18.50;1.00;;;;;;5051614;28;20013;-63
2023/05/17 11:37:51;;;;;;;1.50;1.40;;;18.50;1.00;;;;;;5056672;28;20136;-62
2023/05/17 11:40:26;;;;;;;2.45;0.80;;;18.60;1.00;;;;;;5054834;28;20074;-63
2023/05/17 11:43:16;;;;;;;2.35;1.50;;;18.40;1.00;;;;;;5049653;28;20022;-62
2023/05/17 11:45:43;;;;;;;2.45;1.77;;;18.50;1.00;;;;;;5055140;28;20021;-63
2023/05/17 11:48:12;;;;;;;2.63;1.90;;;18.60;1.00;;;;;;5053073;28;20135;-63
2023/05/17 11:50:42;;;;;;;1.60;1.30;;;18.60;1.00;;;;;;5052032;28;20021;-63
2023/05/17 11:53:09;;;;;;;2.53;1.08;;;18.60;1.00;;;;;;5053159;28;20477;-63
2023/05/17 11:55:49;;;;;;;1.60;1.25;;;18.60;1.00;;;;;;5053345;28;20029;-63
2023/05/17 11:58:18;;;;;;;2.05;1.35;;;18.70;1.00;;;;;;5039073;28;20033;-63
2023/05/17 12:00:44;;;;;;;2.63;1.73;;;18.60;1.00;;;;;;5052354;28;20021;-62
2023/05/17 12:03:27;;;;;;;1.80;1.60;;;18.70;1.00;;;;;;5047418;28;20082;-62
2023/05/17 12:06:16;;;;;;;1.75;1.42;;;18.80;1.00;;;;;;5045647;28;20399;-62
2023/05/17 12:08:45;;;;;;;2.88;1.95;;;18.90;1.00;;;;;;5053369;28;20056;-62
2023/05/17 12:11:14;;;;;;;2.20;2.00;;;18.80;1.00;;;;;;5049491;28;20064;-62
2023/05/17 12:13:42;;;;;;;7.65;1.83;;;18.90;1.00;;;;;;5052871;28;20029;-63
2023/05/17 12:16:12;;;;;;;3.67;1.42;;;18.90;1.00;;;;;;5051250;28;20433;-63
2023/05/17 12:18:42;;;;;;;2.45;1.60;;;18.90;1.00;;;;;;5052169;28;20035;-63
2023/05/17 12:21:12;;;;;;;2.80;2.05;;;19.00;1.00;;;;;;5053220;28;20079;-62
2023/05/17 12:23:42;;;;;;;2.13;1.90;;;19.00;1.00;;;;;;5052744;28;20036;-63
2023/05/17 12:26:19;;;;;;;4.55;2.22;;;19.00;1.00;;;;;;5050859;28;20138;-63
2023/05/17 12:28:56;;;;;;;5.07;1.77;;;18.90;1.00;;;;;;5045602;28;20017;-63
2023/05/17 12:31:35;;;;;;;1.70;1.60;;;18.90;1.00;;;;;;5052347;28;20032;-63
2023/05/17 12:34:01;;;;;;;2.55;1.77;;;18.70;1.00;;;;;;5050713;28;20082;-63
2023/05/17 12:36:29;;;;;;;1.75;1.10;;;18.80;1.00;;;;;;5051551;28;20045;-63
2023/05/17 12:38:55;;;;;;;1.65;1.40;;;18.90;1.00;;;;;;5051498;28;20056;-63
2023/05/17 12:41:22;;;;;;;2.38;2.17;;;18.70;1.00;;;;;;5051410;28;20370;-63
2023/05/17 12:43:48;;;;;;;1.90;1.80;;;18.70;1.00;;;;;;5047580;28;20021;-63
2023/05/17 12:46:17;;;;;;;1.90;1.55;;;18.80;1.00;;;;;;5049497;28;20029;-54
2023/05/17 12:48:44;;;;;;;1.52;1.30;;;18.80;1.00;;;;;;5042497;28;20082;-50
2023/05/17 12:51:11;;;;;;;2.08;1.50;;;18.80;1.00;;;;;;5052313;28;20509;-50
2023/05/17 12:53:41;;;;;;;1.80;1.10;;;19.00;1.00;;;;;;5048438;28;20467;-54
2023/05/17 12:56:08;;;;;;;2.10;1.40;;;18.90;1.00;;;;;;5043420;28;20115;-55
2023/05/17 12:58:33;;;;;;;1.45;1.35;;;19.00;1.00;;;;;;5048538;28;20029;-52